createdAt,value
2022-10-12T00:00:29.933Z,17.70
2022-10-12T00:04:31.636Z,18.23
2022-10-12T00:08:35.058Z,18.13
2022-10-12T00:12:36.963Z,18.25
2022-10-12T00:16:38.652Z,19.63
2022-10-12T00:20:43.472Z,19.85
2022-10-12T00:24:45.190Z,19.10
2022-10-12T00:28:47.627Z,19.43
2022-10-12T00:32:49.329Z,18.83
2022-10-12T00:36:51.058Z,19.33
2022-10-12T00:40:52.748Z,19.80
2022-10-12T00:44:54.655Z,18.33
2022-10-12T00:49:01.619Z,17.83
2022-10-12T00:53:06.181Z,18.48
2022-10-12T00:57:09.914Z,20.15
2022-10-12T01:01:11.977Z,19.15
2022-10-12T01:05:13.868Z,18.60
2022-10-12T01:09:15.787Z,18.40
2022-10-12T01:13:18.233Z,18.55
2022-10-12T01:17:36.615Z,17.27
2022-10-12T01:21:49.386Z,17.75
2022-10-12T01:26:38.483Z,18.63
2022-10-12T01:30:47.504Z,18.10
2022-10-12T01:35:21.129Z,18.60
2022-10-12T01:39:40.417Z,17.90
2022-10-12T01:43:44.210Z,17.00
2022-10-12T01:47:52.626Z,18.30
2022-10-12T01:52:12.880Z,18.03
2022-10-12T01:56:23.030Z,18.58
2022-10-12T02:00:24.686Z,18.60
2022-10-12T02:04:47.529Z,18.47
2022-10-12T02:09:14.689Z,18.63
2022-10-12T02:13:20.052Z,18.83
2022-10-12T02:17:23.209Z,18.67
2022-10-12T02:21:29.868Z,19.33
2022-10-12T02:25:33.292Z,18.03
2022-10-12T02:29:38.589Z,16.83
2022-10-12T02:33:51.103Z,16.73
2022-10-12T02:37:58.559Z,19.50
2022-10-12T02:42:08.927Z,19.55
2022-10-12T02:46:11.953Z,17.67
2022-10-12T02:50:15.556Z,17.07
2022-10-12T02:54:17.455Z,16.07
2022-10-12T02:58:19.818Z,14.77
2022-10-12T03:02:21.837Z,14.93
2022-10-12T03:06:23.907Z,14.52
2022-10-12T03:10:25.596Z,14.90
2022-10-12T03:14:27.583Z,14.20
2022-10-12T03:18:29.248Z,15.90
2022-10-12T03:22:30.906Z,16.20
2022-10-12T03:26:32.935Z,16.07
2022-10-12T03:30:34.630Z,16.40
2022-10-12T03:34:36.280Z,16.13
2022-10-12T03:38:37.964Z,16.57
2022-10-12T03:42:39.646Z,16.45
2022-10-12T03:46:41.289Z,18.03
2022-10-12T03:50:42.956Z,18.20
2022-10-12T03:54:44.604Z,17.15
2022-10-12T03:58:46.243Z,16.00
2022-10-12T04:02:48.233Z,17.00
2022-10-12T04:06:49.915Z,15.73
2022-10-12T04:10:51.704Z,16.98
2022-10-12T04:14:53.362Z,16.33
2022-10-12T04:18:54.999Z,16.77
2022-10-12T04:22:56.623Z,16.45
2022-10-12T04:26:58.266Z,18.90
2022-10-12T04:30:59.952Z,17.42
2022-10-12T04:35:01.643Z,17.85
2022-10-12T04:39:03.756Z,17.50
2022-10-12T04:43:05.501Z,16.63
2022-10-12T04:47:07.182Z,17.98
2022-10-12T04:51:09.702Z,17.70
2022-10-12T04:55:11.518Z,17.38
2022-10-12T04:59:13.305Z,16.63
2022-10-12T05:03:15.476Z,16.73
2022-10-12T05:07:17.277Z,16.17
2022-10-12T05:11:18.981Z,18.17
2022-10-12T05:15:20.622Z,16.55
2022-10-12T05:19:22.290Z,17.17
2022-10-12T05:23:23.973Z,17.65
2022-10-12T05:27:25.663Z,17.90
2022-10-12T05:31:27.353Z,17.10
2022-10-12T05:35:28.981Z,18.60
2022-10-12T05:39:30.651Z,18.47
2022-10-12T05:43:33.789Z,18.17
2022-10-12T05:47:35.681Z,18.03
2022-10-12T05:51:38.782Z,18.15
2022-10-12T05:55:40.472Z,17.93
2022-10-12T05:59:42.749Z,17.77
2022-10-12T06:03:44.437Z,18.47
2022-10-12T06:07:46.150Z,21.20
2022-10-12T06:11:47.844Z,20.10
2022-10-12T06:15:50.055Z,19.50
2022-10-12T06:19:51.739Z,21.13
2022-10-12T06:23:53.436Z,22.40
2022-10-12T06:27:55.163Z,23.42
2022-10-12T06:31:56.902Z,22.87
2022-10-12T06:35:58.635Z,23.23
2022-10-12T06:40:00.301Z,26.48
2022-10-12T06:44:01.967Z,26.23
2022-10-12T06:48:05.574Z,24.60
2022-10-12T06:52:07.246Z,22.85
2022-10-12T06:56:10.294Z,22.60
2022-10-12T07:00:13.311Z,23.15
2022-10-12T07:04:15.004Z,23.08
2022-10-12T07:08:16.637Z,22.80
2022-10-12T07:12:18.560Z,24.30
2022-10-12T07:16:20.267Z,23.07
2022-10-12T07:20:22.093Z,23.83
2022-10-12T07:24:23.747Z,23.93
2022-10-12T07:28:25.838Z,24.98
2022-10-12T07:32:27.544Z,23.85
2022-10-12T07:36:47.495Z,24.42
2022-10-12T07:40:51.092Z,24.88
2022-10-12T07:44:52.775Z,24.98
2022-10-12T07:48:54.495Z,26.38
2022-10-12T07:52:56.142Z,25.67
2022-10-12T07:56:57.813Z,26.02
2022-10-12T08:01:06.953Z,25.80
2022-10-12T08:05:09.005Z,25.00
2022-10-12T08:09:10.707Z,24.63
2022-10-12T08:13:12.360Z,26.23
2022-10-12T08:17:14.048Z,25.77
2022-10-12T08:21:16.952Z,25.55
2022-10-12T08:25:18.649Z,27.00
2022-10-12T08:29:20.455Z,27.13
2022-10-12T08:33:22.221Z,24.67
2022-10-12T08:37:23.989Z,26.67
2022-10-12T08:41:44.314Z,26.55
2022-10-12T08:45:55.638Z,26.90
2022-10-12T08:49:59.177Z,26.67
2022-10-12T08:54:07.403Z,27.98
2022-10-12T08:58:20.461Z,25.23
2022-10-12T09:02:31.365Z,25.23
2022-10-12T09:07:16.721Z,23.30
2022-10-12T09:11:41.190Z,23.63
2022-10-12T09:16:06.167Z,22.92
2022-10-12T09:20:35.227Z,23.33
2022-10-12T09:24:39.252Z,23.77
2022-10-12T09:28:45.209Z,23.65
2022-10-12T09:33:22.250Z,25.40
2022-10-12T09:37:30.996Z,26.45
2022-10-12T09:41:42.298Z,25.88
2022-10-12T09:45:44.130Z,21.88
2022-10-12T09:49:47.941Z,21.17
2022-10-12T09:53:55.349Z,19.38
2022-10-12T09:58:02.799Z,20.67
2022-10-12T10:02:11.375Z,20.02
2022-10-12T10:06:15.295Z,19.77
2022-10-12T10:10:29.560Z,20.52
2022-10-12T10:14:32.722Z,20.80
2022-10-12T10:18:50.148Z,18.90
2022-10-12T10:22:51.878Z,19.73
2022-10-12T10:27:03.567Z,17.67
2022-10-12T10:31:22.328Z,18.98
2022-10-12T10:35:24.009Z,16.63
2022-10-12T10:39:33.157Z,17.00
2022-10-12T10:43:37.282Z,16.08
2022-10-12T10:47:46.448Z,15.85
2022-10-12T10:52:00.548Z,15.63
2022-10-12T10:56:07.480Z,15.70
2022-10-12T11:00:37.850Z,16.83
2022-10-12T11:04:46.226Z,16.08
2022-10-12T11:08:52.656Z,17.73
2022-10-12T11:13:20.526Z,15.05
2022-10-12T11:17:29.602Z,14.55
2022-10-12T11:21:37.624Z,13.98
2022-10-12T11:25:48.985Z,16.42
2022-10-12T11:30:08.928Z,16.00
2022-10-12T11:34:17.075Z,16.30
2022-10-12T11:38:22.515Z,15.15
2022-10-12T11:42:43.261Z,14.50
2022-10-12T11:46:56.098Z,15.02
2022-10-12T11:51:03.805Z,15.27
2022-10-12T11:55:27.811Z,14.43
2022-10-12T11:59:47.829Z,15.15
2022-10-12T12:04:40.587Z,15.23
2022-10-12T12:08:40.352Z,13.15
2022-10-12T12:13:22.958Z,13.98
2022-10-12T12:17:31.572Z,14.57
2022-10-12T12:22:12.429Z,15.13
2022-10-12T12:26:18.857Z,15.02
2022-10-12T12:30:24.361Z,15.43
2022-10-12T12:34:27.893Z,15.70
2022-10-12T12:38:33.635Z,15.95
2022-10-12T12:42:36.144Z,14.05
2022-10-12T12:46:56.251Z,15.02
2022-10-12T12:51:01.589Z,13.60
2022-10-12T12:55:18.305Z,15.35
2022-10-12T12:59:34.219Z,15.88
2022-10-12T13:03:45.498Z,15.73
2022-10-12T13:08:19.752Z,14.55
2022-10-12T13:12:33.722Z,14.85
2022-10-12T13:17:31.232Z,16.08
2022-10-12T13:21:47.596Z,15.25
2022-10-12T13:26:06.481Z,15.57
2022-10-12T13:30:11.685Z,16.83
2022-10-12T13:34:21.087Z,16.33
2022-10-12T13:38:25.545Z,16.48
2022-10-12T13:42:34.957Z,16.00
2022-10-12T13:46:45.870Z,17.60
2022-10-12T13:50:52.608Z,16.13
2022-10-12T13:54:56.032Z,15.90
2022-10-12T13:59:00.251Z,16.63
2022-10-12T14:03:06.264Z,24.70
2022-10-12T14:07:17.766Z,15.75
2022-10-12T14:11:20.152Z,15.80
2022-10-12T14:15:23.431Z,14.45
2022-10-12T14:19:40.085Z,15.35
2022-10-12T14:23:48.103Z,14.13
2022-10-12T14:27:56.503Z,15.48
2022-10-12T14:32:01.576Z,15.80
2022-10-12T14:36:21.587Z,16.77
2022-10-12T14:40:34.341Z,15.10
2022-10-12T14:44:43.641Z,14.82
2022-10-12T14:48:45.317Z,14.75
2022-10-12T14:52:48.939Z,15.93
2022-10-12T14:56:50.783Z,14.85
2022-10-12T15:00:52.831Z,14.55
2022-10-12T15:04:56.398Z,18.50
2022-10-12T15:08:58.061Z,15.20
2022-10-12T15:12:59.748Z,15.38
2022-10-12T15:17:03.138Z,15.25
2022-10-12T15:21:04.896Z,16.42
2022-10-12T15:25:20.701Z,15.77
2022-10-12T15:29:22.359Z,16.20
2022-10-12T15:33:24.881Z,18.33
2022-10-12T15:37:30.245Z,17.95
2022-10-12T15:41:32.787Z,16.75
2022-10-12T15:45:36.470Z,19.60
2022-10-12T15:49:38.553Z,19.08
2022-10-12T15:53:40.894Z,18.63
2022-10-12T15:57:46.928Z,16.55
2022-10-12T16:01:49.563Z,15.02
2022-10-12T16:05:52.456Z,17.15
2022-10-12T16:09:55.156Z,16.02
2022-10-12T16:14:06.703Z,13.48
2022-10-12T16:18:19.349Z,15.90
2022-10-12T16:22:21.466Z,15.05
2022-10-12T16:26:27.357Z,14.77
2022-10-12T16:30:29.736Z,13.00
2022-10-12T16:34:31.577Z,14.57
2022-10-12T16:38:34.164Z,16.45
2022-10-12T16:47:14.018Z,24.55
2022-10-12T16:51:15.850Z,15.75
2022-10-12T16:55:19.410Z,38.35
2022-10-12T16:59:25.006Z,15.98
2022-10-12T17:03:28.392Z,18.88
2022-10-12T17:07:34.160Z,15.35
2022-10-12T17:11:38.116Z,18.02
2022-10-12T17:15:41.775Z,22.13
2022-10-12T17:19:44.162Z,22.35
2022-10-12T17:23:48.541Z,16.95
2022-10-12T17:27:50.706Z,19.10
2022-10-12T17:31:54.261Z,23.13
2022-10-12T17:35:56.688Z,21.88
2022-10-12T17:40:03.566Z,23.27
2022-10-12T17:44:09.895Z,16.90
2022-10-12T17:48:16.775Z,18.63
2022-10-12T17:52:19.084Z,18.40
2022-10-12T17:56:21.083Z,19.95
2022-10-12T18:00:23.327Z,19.90
2022-10-12T18:04:27.411Z,20.48
2022-10-12T18:08:30.924Z,19.50
2022-10-12T18:12:34.239Z,19.67
2022-10-12T18:16:36.973Z,20.70
2022-10-12T18:20:41.964Z,21.45
2022-10-12T18:24:44.705Z,24.38
2022-10-12T18:28:47.048Z,17.80
2022-10-12T18:32:48.832Z,17.23
2022-10-12T18:36:51.080Z,19.13
2022-10-12T18:40:54.270Z,16.13
2022-10-12T18:45:06.450Z,16.63
2022-10-12T18:49:10.706Z,15.45
2022-10-12T18:53:13.071Z,14.60
2022-10-12T18:57:15.352Z,13.02
2022-10-12T19:01:20.728Z,15.57
2022-10-12T19:05:25.084Z,12.20
2022-10-12T19:09:27.768Z,12.80
2022-10-12T19:13:29.571Z,12.07
2022-10-12T19:17:32.373Z,12.13
2022-10-12T19:21:34.628Z,12.52
2022-10-12T19:25:46.357Z,14.27
2022-10-12T19:29:48.639Z,14.25
2022-10-12T19:33:51.059Z,16.35
2022-10-12T19:38:05.014Z,19.60
2022-10-12T19:42:07.240Z,13.37
2022-10-12T19:46:11.363Z,10.27
2022-10-12T19:50:13.654Z,11.00
2022-10-12T19:54:15.828Z,11.20
2022-10-12T19:58:25.104Z,14.67
2022-10-12T20:02:27.265Z,13.00
2022-10-12T20:06:30.166Z,13.80
2022-10-12T20:10:31.998Z,13.60
2022-10-12T20:14:33.894Z,14.43
2022-10-12T20:18:37.209Z,14.93
2022-10-12T20:22:38.960Z,14.10
2022-10-12T20:26:42.540Z,10.43
2022-10-12T20:30:44.510Z,10.33
2022-10-12T20:34:46.395Z,11.00
2022-10-12T20:38:48.227Z,11.10
2022-10-12T20:42:51.338Z,11.07
2022-10-12T20:46:53.109Z,11.33
2022-10-12T20:50:54.855Z,10.40
2022-10-12T20:54:59.794Z,10.50
2022-10-12T20:59:02.263Z,10.43
2022-10-12T21:03:04.024Z,11.40
2022-10-12T21:07:05.736Z,10.90
2022-10-12T21:11:09.382Z,10.63
2022-10-12T21:15:11.191Z,9.93
2022-10-12T21:19:17.244Z,11.03
2022-10-12T21:23:18.982Z,11.23
2022-10-12T21:27:20.683Z,10.60
2022-10-12T21:31:27.030Z,10.50
2022-10-12T21:35:31.289Z,11.30
2022-10-12T21:39:33.190Z,11.57
2022-10-12T21:43:35.835Z,10.33
2022-10-12T21:47:37.545Z,10.23
2022-10-12T21:51:40.313Z,10.67
2022-10-12T21:55:42.131Z,10.30
2022-10-12T21:59:43.807Z,11.97
2022-10-12T22:03:48.081Z,11.83
2022-10-12T22:07:49.830Z,12.47
2022-10-12T22:12:02.757Z,12.90
2022-10-12T22:16:07.465Z,15.30
2022-10-12T22:20:10.150Z,16.30
2022-10-12T22:24:12.012Z,15.33
2022-10-12T22:28:14.010Z,15.90
2022-10-12T22:32:19.399Z,14.90
2022-10-12T22:36:21.275Z,13.53
2022-10-12T22:40:23.254Z,14.07
2022-10-12T22:44:25.080Z,13.37
2022-10-12T22:48:27.271Z,14.17
2022-10-12T22:52:35.246Z,14.97
2022-10-12T22:56:38.066Z,14.07
2022-10-12T23:00:40.303Z,14.43
2022-10-12T23:04:42.356Z,14.23
2022-10-12T23:08:44.897Z,16.50
2022-10-12T23:12:51.181Z,18.43
2022-10-12T23:16:52.885Z,19.33
2022-10-12T23:20:54.589Z,21.03
2022-10-12T23:24:56.245Z,20.67
2022-10-12T23:28:58.634Z,19.77
2022-10-12T23:33:00.818Z,19.27
2022-10-12T23:37:02.500Z,18.67
2022-10-12T23:41:05.049Z,19.77
2022-10-12T23:45:07.701Z,19.50
2022-10-12T23:49:09.533Z,20.77
2022-10-12T23:53:12.632Z,21.83
2022-10-12T23:57:34.651Z,23.67
